createdAt,value
2018-02-09T00:00:22.051Z,259.60
2018-02-09T00:02:49.819Z,222.40
2018-02-09T00:05:17.644Z,234.57
2018-02-09T00:07:45.416Z,250.75
2018-02-09T00:10:13.954Z,273.83
2018-02-09T00:12:42.550Z,278.95
2018-02-09T00:15:10.316Z,283.48
2018-02-09T00:17:38.081Z,320.90
2018-02-09T00:20:05.908Z,279.87
2018-02-09T00:22:46.396Z,279.70
2018-02-09T00:25:14.227Z,283.80
2018-02-09T00:27:42.763Z,299.15
2018-02-09T00:30:10.524Z,292.92
2018-02-09T00:32:38.343Z,298.42
2018-02-09T00:35:06.877Z,279.95
2018-02-09T00:37:34.669Z,283.38
2018-02-09T00:40:03.353Z,277.62
2018-02-09T00:42:31.904Z,295.10
2018-02-09T00:44:59.672Z,290.12
2018-02-09T00:47:27.509Z,301.25
2018-02-09T00:49:55.282Z,309.27
2018-02-09T00:52:23.052Z,278.98
2018-02-09T00:54:51.648Z,272.25
2018-02-09T00:57:19.427Z,307.58
2018-02-09T00:59:47.966Z,313.48
2018-02-09T01:02:15.819Z,324.23
2018-02-09T01:04:43.593Z,322.42
2018-02-09T01:07:12.137Z,318.10
2018-02-09T01:09:39.983Z,310.42
2018-02-09T01:12:08.549Z,319.20
2018-02-09T01:14:36.327Z,294.08
2018-02-09T01:17:04.920Z,299.83
2018-02-09T01:19:32.687Z,297.40
2018-02-09T01:22:00.461Z,284.70
2018-02-09T01:24:28.284Z,297.48
2018-02-09T01:26:56.069Z,275.42
2018-02-09T01:29:23.847Z,265.27
2018-02-09T01:31:51.673Z,279.15
2018-02-09T01:34:19.436Z,273.85
2018-02-09T01:36:47.213Z,257.00
2018-02-09T01:39:15.803Z,290.92
2018-02-09T01:41:43.568Z,283.77
2018-02-09T01:44:11.345Z,253.68
2018-02-09T01:46:39.180Z,296.30
2018-02-09T01:49:07.717Z,282.75
2018-02-09T01:51:35.487Z,302.33
2018-02-09T01:54:03.493Z,286.52
2018-02-09T01:56:32.030Z,276.23
2018-02-09T01:58:59.808Z,303.55
2018-02-09T02:01:27.635Z,318.35
2018-02-09T02:03:55.405Z,304.45
2018-02-09T02:06:23.180Z,277.52
2018-02-09T02:08:50.999Z,295.67
2018-02-09T02:11:19.634Z,283.42
2018-02-09T02:13:47.413Z,298.65
2018-02-09T02:16:15.242Z,293.77
2018-02-09T02:18:43.012Z,253.75
2018-02-09T02:21:10.780Z,306.73
2018-02-09T02:23:38.599Z,287.02
2018-02-09T02:26:06.372Z,295.17
2018-02-09T02:28:34.134Z,298.80
2018-02-09T02:31:01.960Z,290.15
2018-02-09T02:33:29.759Z,298.40
2018-02-09T02:35:57.569Z,291.73
2018-02-09T02:38:25.400Z,288.60
2018-02-09T02:40:53.186Z,275.62
2018-02-09T02:43:20.961Z,286.10
2018-02-09T02:45:48.784Z,305.00
2018-02-09T02:48:16.571Z,292.30
2018-02-09T02:50:44.367Z,285.13
2018-02-09T02:53:12.231Z,329.75
2018-02-09T02:55:40.768Z,301.15
2018-02-09T02:58:08.535Z,290.67
2018-02-09T03:00:36.616Z,314.95
2018-02-09T03:03:04.388Z,294.27
2018-02-09T03:05:32.929Z,309.90
2018-02-09T03:08:00.751Z,312.08
2018-02-09T03:10:28.552Z,302.33
2018-02-09T03:12:56.347Z,296.17
2018-02-09T03:15:24.168Z,318.20
2018-02-09T03:17:51.936Z,314.30
2018-02-09T03:20:19.703Z,302.90
2018-02-09T03:22:47.574Z,298.38
2018-02-09T03:25:16.131Z,283.45
2018-02-09T03:27:43.902Z,284.83
2018-02-09T03:30:11.736Z,320.02
2018-02-09T03:32:39.506Z,301.50
2018-02-09T03:35:07.288Z,293.70
2018-02-09T03:37:35.136Z,299.00
2018-02-09T03:40:02.920Z,300.10
2018-02-09T03:42:30.687Z,294.75
2018-02-09T03:44:58.510Z,288.30
2018-02-09T03:47:26.284Z,325.20
2018-02-09T03:49:54.055Z,324.37
2018-02-09T03:52:21.881Z,312.70
2018-02-09T03:54:50.419Z,292.98
2018-02-09T03:57:18.186Z,301.55
2018-02-09T03:59:46.006Z,299.00
2018-02-09T04:02:13.772Z,326.50
2018-02-09T04:04:41.536Z,276.08
2018-02-09T04:07:09.360Z,290.35
2018-02-09T04:09:37.136Z,285.63
2018-02-09T04:12:05.668Z,274.65
2018-02-09T04:14:33.483Z,304.70
2018-02-09T04:17:02.022Z,305.90
2018-02-09T04:19:29.792Z,284.92
2018-02-09T04:21:57.628Z,302.58
2018-02-09T04:24:25.404Z,319.83
2018-02-09T04:26:53.171Z,305.42
2018-02-09T04:29:21.029Z,293.60
2018-02-09T04:31:48.803Z,309.42
2018-02-09T04:34:16.572Z,280.67
2018-02-09T04:36:44.399Z,272.05
2018-02-09T04:39:12.171Z,285.08
2018-02-09T04:41:39.952Z,286.05
2018-02-09T04:44:07.769Z,296.67
2018-02-09T04:46:35.539Z,266.17
2018-02-09T04:49:03.347Z,314.35
2018-02-09T04:51:31.176Z,274.75
2018-02-09T04:53:58.947Z,309.23
2018-02-09T04:56:26.720Z,279.10
2018-02-09T04:58:54.911Z,292.92
2018-02-09T05:01:22.728Z,287.50
2018-02-09T05:03:50.497Z,275.38
2018-02-09T05:06:18.315Z,328.33
2018-02-09T05:08:46.848Z,309.05
2018-02-09T05:11:14.616Z,292.40
2018-02-09T05:13:42.440Z,295.90
2018-02-09T05:16:10.208Z,309.25
2018-02-09T05:18:37.975Z,322.33
2018-02-09T05:21:05.815Z,313.20
2018-02-09T05:23:34.347Z,326.75
2018-02-09T05:26:02.128Z,341.92
2018-02-09T05:28:29.951Z,318.10
2018-02-09T05:30:57.719Z,343.20
2018-02-09T05:33:25.479Z,315.00
2018-02-09T05:35:53.305Z,302.73
2018-02-09T05:38:21.839Z,329.23
2018-02-09T05:40:49.606Z,315.95
2018-02-09T05:43:17.428Z,302.15
2018-02-09T05:45:45.192Z,306.30
2018-02-09T05:48:12.969Z,306.55
2018-02-09T05:50:40.791Z,339.35
2018-02-09T05:53:09.354Z,314.23
2018-02-09T05:55:37.123Z,301.48
2018-02-09T05:58:04.964Z,317.20
2018-02-09T06:00:32.731Z,323.38
2018-02-09T06:03:00.595Z,315.65
2018-02-09T06:05:28.421Z,349.15
2018-02-09T06:07:56.192Z,355.95
2018-02-09T06:10:23.960Z,329.20
2018-02-09T06:12:51.780Z,335.25
2018-02-09T06:15:19.559Z,337.33
2018-02-09T06:17:47.384Z,353.83
2018-02-09T06:20:15.213Z,356.25
2018-02-09T06:22:43.740Z,355.10
2018-02-09T06:25:12.280Z,333.20
2018-02-09T06:27:40.106Z,326.62
2018-02-09T06:30:07.893Z,353.60
2018-02-09T06:32:35.664Z,328.58
2018-02-09T06:35:03.495Z,335.58
2018-02-09T06:37:31.270Z,320.58
2018-02-09T06:39:59.036Z,296.55
2018-02-09T06:42:26.855Z,321.20
2018-02-09T06:44:55.392Z,286.05
2018-02-09T06:47:23.165Z,286.30
2018-02-09T06:49:51.008Z,312.70
2018-02-09T06:52:18.788Z,298.20
2018-02-09T06:54:46.572Z,266.30
2018-02-09T06:57:14.423Z,275.83
2018-02-09T06:59:42.193Z,279.70
2018-02-09T07:02:09.973Z,275.60
2018-02-09T07:04:38.566Z,254.73
2018-02-09T07:07:11.136Z,269.90
2018-02-09T07:09:39.724Z,273.58
2018-02-09T07:12:07.511Z,260.98
2018-02-09T07:14:35.290Z,244.35
2018-02-09T07:17:03.108Z,221.95
2018-02-09T07:19:31.644Z,255.77
2018-02-09T07:21:59.410Z,229.57
2018-02-09T07:24:27.364Z,232.10
2018-02-09T07:26:55.144Z,236.30
2018-02-09T07:29:22.921Z,236.02
2018-02-09T07:31:50.767Z,215.30
2018-02-09T07:34:18.535Z,251.30
2018-02-09T07:36:46.303Z,239.57
2018-02-09T07:39:14.128Z,255.90
2018-02-09T07:41:41.937Z,266.40
2018-02-09T07:44:10.484Z,266.63
2018-02-09T07:46:38.311Z,244.07
2018-02-09T07:49:06.084Z,255.18
2018-02-09T07:51:33.924Z,252.52
2018-02-09T07:54:01.759Z,282.27
2018-02-09T07:56:29.519Z,258.80
2018-02-09T07:58:57.288Z,235.93
2018-02-09T08:01:25.115Z,245.57
2018-02-09T08:03:52.883Z,237.10
2018-02-09T08:06:20.657Z,233.50
2018-02-09T08:08:48.488Z,265.60
2018-02-09T08:11:16.264Z,248.30
2018-02-09T08:13:44.033Z,288.67
2018-02-09T08:16:11.856Z,282.50
2018-02-09T08:18:39.628Z,258.95
2018-02-09T08:21:07.459Z,258.95
2018-02-09T08:23:36.042Z,274.25
2018-02-09T08:26:04.575Z,293.05
2018-02-09T08:28:32.341Z,278.45
2018-02-09T08:31:00.168Z,261.08
2018-02-09T08:33:27.928Z,263.98
2018-02-09T08:35:55.692Z,277.25
2018-02-09T08:38:23.520Z,253.43
2018-02-09T08:40:51.287Z,281.75
2018-02-09T08:43:19.051Z,283.73
2018-02-09T08:45:47.647Z,269.40
2018-02-09T08:48:16.180Z,230.23
2018-02-09T08:50:43.955Z,274.67
2018-02-09T08:53:11.768Z,265.70
2018-02-09T08:55:39.533Z,266.20
2018-02-09T08:58:07.347Z,272.77
2018-02-09T09:00:35.174Z,259.35
2018-02-09T09:03:02.971Z,267.95
2018-02-09T09:05:30.750Z,255.62
2018-02-09T09:07:58.603Z,252.10
2018-02-09T09:10:26.375Z,257.15
2018-02-09T09:12:54.900Z,242.98
2018-02-09T09:15:22.779Z,259.55
2018-02-09T09:17:50.548Z,276.48
2018-02-09T09:20:18.316Z,245.40
2018-02-09T09:22:46.151Z,253.00
2018-02-09T09:25:13.915Z,239.75
2018-02-09T09:27:41.679Z,239.35
2018-02-09T09:30:09.499Z,238.55
2018-02-09T09:32:38.028Z,243.23
2018-02-09T09:35:05.792Z,218.57
2018-02-09T09:37:33.612Z,194.32
2018-02-09T09:40:02.139Z,222.32
2018-02-09T09:42:29.899Z,218.65
2018-02-09T09:44:57.724Z,243.43
2018-02-09T09:47:25.495Z,222.88
2018-02-09T09:49:53.258Z,187.15
2018-02-09T09:52:21.080Z,211.10
2018-02-09T09:54:48.854Z,220.02
2018-02-09T09:57:17.392Z,210.55
2018-02-09T09:59:45.565Z,204.73
2018-02-09T10:02:25.030Z,186.55
2018-02-09T10:04:52.872Z,190.90
2018-02-09T10:07:20.640Z,194.30
2018-02-09T10:09:48.408Z,190.98
2018-02-09T10:12:16.233Z,130.57
2018-02-09T10:14:43.989Z,160.23
2018-02-09T10:17:11.751Z,164.20
2018-02-09T10:19:39.573Z,127.35
2018-02-09T10:22:08.103Z,114.53
2018-02-09T10:24:35.864Z,149.65
2018-02-09T10:27:03.677Z,132.95
2018-02-09T10:29:31.439Z,146.48
2018-02-09T10:31:59.962Z,146.35
2018-02-09T10:34:27.815Z,146.90
2018-02-09T10:36:55.587Z,116.37
2018-02-09T10:39:23.355Z,116.18
2018-02-09T10:41:51.172Z,103.07
2018-02-09T10:44:19.734Z,81.35
2018-02-09T10:46:47.491Z,94.47
2018-02-09T10:49:15.305Z,110.53
2018-02-09T10:51:43.075Z,115.32
2018-02-09T10:54:10.830Z,103.78
2018-02-09T10:56:38.641Z,108.68
2018-02-09T10:59:06.400Z,101.43
2018-02-09T11:01:37.024Z,104.40
2018-02-09T11:04:04.844Z,114.57
2018-02-09T11:06:32.603Z,104.97
2018-02-09T11:09:00.372Z,95.68
2018-02-09T11:11:28.183Z,96.87
2018-02-09T11:13:55.973Z,116.88
2018-02-09T11:16:24.492Z,89.62
2018-02-09T11:18:52.317Z,102.20
2018-02-09T11:21:20.845Z,102.62
2018-02-09T11:23:48.639Z,110.72
2018-02-09T11:26:16.461Z,104.22
2018-02-09T11:28:44.227Z,109.50
2018-02-09T11:31:11.995Z,103.47
2018-02-09T11:33:39.851Z,114.28
2018-02-09T11:36:07.619Z,98.43
2018-02-09T11:38:35.383Z,104.50
2018-02-09T11:41:04.012Z,91.87
2018-02-09T11:43:32.553Z,110.12
2018-02-09T11:46:00.316Z,99.95
2018-02-09T11:48:28.143Z,100.22
2018-02-09T11:50:55.904Z,103.12
2018-02-09T11:53:23.664Z,92.72
2018-02-09T11:55:51.474Z,96.80
2018-02-09T11:58:19.237Z,96.55
2018-02-09T12:00:47.031Z,108.50
2018-02-09T12:03:14.836Z,95.12
2018-02-09T12:05:42.592Z,87.43
2018-02-09T12:08:10.357Z,81.55
2018-02-09T12:10:38.195Z,79.85
2018-02-09T12:13:05.952Z,79.53
2018-02-09T12:15:33.784Z,107.07
2018-02-09T12:18:01.612Z,78.20
2018-02-09T12:20:29.380Z,95.60
2018-02-09T12:22:57.904Z,74.47
2018-02-09T12:25:26.509Z,83.00
2018-02-09T12:27:54.270Z,79.93
2018-02-09T12:30:22.027Z,82.82
2018-02-09T12:32:49.857Z,76.65
2018-02-09T12:35:17.616Z,77.70
2018-02-09T12:37:45.372Z,79.47
2018-02-09T12:40:13.190Z,83.68
2018-02-09T12:42:40.943Z,63.65
2018-02-09T12:45:08.704Z,82.20
2018-02-09T12:47:36.528Z,66.45
2018-02-09T12:50:04.320Z,74.47
2018-02-09T12:52:32.080Z,82.43
2018-02-09T12:54:59.897Z,69.97
2018-02-09T12:57:27.655Z,64.75
2018-02-09T12:59:55.412Z,69.00
2018-02-09T13:02:23.232Z,68.07
2018-02-09T13:04:50.988Z,79.40
2018-02-09T13:07:19.512Z,73.80
2018-02-09T13:09:47.327Z,64.55
2018-02-09T13:12:27.584Z,71.75
2018-02-09T13:14:56.171Z,67.22
2018-02-09T13:17:23.931Z,66.65
2018-02-09T13:19:51.697Z,65.15
2018-02-09T13:22:31.277Z,74.60
2018-02-09T13:24:59.037Z,70.90
2018-02-09T13:27:27.559Z,76.43
2018-02-09T13:29:56.144Z,75.12
2018-02-09T13:32:36.500Z,75.22
2018-02-09T13:35:05.096Z,80.15
2018-02-09T13:37:33.639Z,75.35
2018-02-09T13:40:01.401Z,75.70
2018-02-09T13:42:29.220Z,72.28
2018-02-09T13:44:56.992Z,75.80
2018-02-09T13:47:24.752Z,57.47
2018-02-09T13:49:52.558Z,66.03
2018-02-09T13:52:20.312Z,62.65
2018-02-09T13:54:48.063Z,62.88
2018-02-09T13:57:15.880Z,54.38
2018-02-09T13:59:43.637Z,62.22
2018-02-09T14:02:11.394Z,61.28
2018-02-09T14:04:40.078Z,58.22
2018-02-09T14:07:07.901Z,62.05
2018-02-09T14:09:35.663Z,63.80
2018-02-09T14:12:03.478Z,55.53
2018-02-09T14:14:31.233Z,56.13
2018-02-09T14:16:58.999Z,59.13
2018-02-09T14:19:26.824Z,51.22
2018-02-09T14:21:54.593Z,51.53
2018-02-09T14:24:23.117Z,46.47
2018-02-09T14:26:50.944Z,54.25
2018-02-09T14:29:19.468Z,52.72
2018-02-09T14:31:47.227Z,43.58
2018-02-09T14:34:15.035Z,54.10
2018-02-09T14:36:43.564Z,51.70
2018-02-09T14:39:11.323Z,56.53
2018-02-09T14:41:39.150Z,43.20
2018-02-09T14:44:07.685Z,43.03
2018-02-09T14:46:35.474Z,50.30
2018-02-09T14:49:03.350Z,52.95
2018-02-09T14:51:31.162Z,46.90
2018-02-09T14:53:58.924Z,48.95
2018-02-09T14:56:26.744Z,64.95
2018-02-09T14:58:55.263Z,51.35
2018-02-09T15:01:23.028Z,47.40
2018-02-09T15:03:50.944Z,47.03
2018-02-09T15:06:19.469Z,46.08
2018-02-09T15:08:47.228Z,46.58
2018-02-09T15:11:15.045Z,49.60
2018-02-09T15:13:43.574Z,58.15
2018-02-09T15:16:11.351Z,53.28
2018-02-09T15:18:39.165Z,59.00
2018-02-09T15:21:07.694Z,59.80
2018-02-09T15:23:35.452Z,71.10
2018-02-09T15:26:03.268Z,59.08
2018-02-09T15:28:31.789Z,55.75
2018-02-09T15:30:59.573Z,74.62
2018-02-09T15:33:27.398Z,70.22
2018-02-09T15:35:55.164Z,74.68
2018-02-09T15:38:22.922Z,57.95
2018-02-09T15:40:50.732Z,66.03
2018-02-09T15:43:18.516Z,54.55
2018-02-09T15:45:47.044Z,66.20
2018-02-09T15:48:15.628Z,62.10
2018-02-09T15:50:43.393Z,59.40
2018-02-09T15:53:11.150Z,76.85
2018-02-09T15:55:38.970Z,79.57
2018-02-09T15:58:06.730Z,62.97
2018-02-09T16:00:35.277Z,57.42
2018-02-09T16:03:03.143Z,73.90
2018-02-09T16:05:30.908Z,60.08
2018-02-09T16:07:58.672Z,78.78
2018-02-09T16:10:26.488Z,71.40
2018-02-09T16:12:54.255Z,58.08
2018-02-09T16:15:22.028Z,72.18
2018-02-09T16:17:49.854Z,67.37
2018-02-09T16:20:17.623Z,65.10
2018-02-09T16:22:45.398Z,76.07
2018-02-09T16:25:13.215Z,74.10
2018-02-09T16:27:40.983Z,79.60
2018-02-09T16:30:09.531Z,71.37
2018-02-09T16:32:37.397Z,91.18
2018-02-09T16:35:05.159Z,83.00
2018-02-09T16:37:32.929Z,72.72
2018-02-09T16:40:00.756Z,89.18
2018-02-09T16:42:28.516Z,70.65
2018-02-09T16:44:56.284Z,85.47
2018-02-09T16:47:24.104Z,96.97
2018-02-09T16:49:52.631Z,80.47
2018-02-09T16:52:20.391Z,80.90
2018-02-09T16:54:48.208Z,83.22
2018-02-09T16:57:16.752Z,68.75
2018-02-09T16:59:44.531Z,72.37
2018-02-09T17:02:12.359Z,66.35
2018-02-09T17:04:40.128Z,84.35
2018-02-09T17:07:07.890Z,75.37
2018-02-09T17:09:35.700Z,73.97
2018-02-09T17:12:04.255Z,72.70
2018-02-09T17:14:32.021Z,82.37
2018-02-09T17:16:59.850Z,64.43
2018-02-09T17:19:27.624Z,75.72
2018-02-09T17:21:55.391Z,80.43
2018-02-09T17:24:23.210Z,70.93
2018-02-09T17:26:50.976Z,85.97
2018-02-09T17:29:18.740Z,73.07
2018-02-09T17:31:46.568Z,84.87
2018-02-09T17:34:14.332Z,98.03
2018-02-09T17:36:42.096Z,78.28
2018-02-09T17:39:10.680Z,82.72
2018-02-09T17:41:39.208Z,93.97
2018-02-09T17:44:06.972Z,96.45
2018-02-09T17:46:34.795Z,108.65
2018-02-09T17:49:02.571Z,87.82
2018-02-09T17:51:30.335Z,91.22
2018-02-09T17:53:58.157Z,86.25
2018-02-09T17:56:25.922Z,91.22
2018-02-09T17:58:53.683Z,91.10
2018-02-09T18:01:21.533Z,89.60
2018-02-09T18:03:49.295Z,77.22
2018-02-09T18:06:17.060Z,78.05
2018-02-09T18:08:44.880Z,75.55
2018-02-09T18:11:12.636Z,72.57
2018-02-09T18:13:40.404Z,91.37
2018-02-09T18:16:08.251Z,85.60
2018-02-09T18:18:36.012Z,98.75
2018-02-09T18:21:03.775Z,95.75
2018-02-09T18:23:31.600Z,91.03
2018-02-09T18:25:59.364Z,97.18
2018-02-09T18:28:27.126Z,102.93
2018-02-09T18:30:54.944Z,94.20
2018-02-09T18:33:22.720Z,116.95
2018-02-09T18:35:50.499Z,101.62
2018-02-09T18:38:18.317Z,87.68
2018-02-09T18:40:46.092Z,100.80
2018-02-09T18:43:13.862Z,97.25
2018-02-09T18:45:41.686Z,87.97
2018-02-09T18:48:10.215Z,101.72
2018-02-09T18:50:37.979Z,97.90
2018-02-09T18:53:05.823Z,91.70
2018-02-09T18:55:33.603Z,92.90
2018-02-09T18:58:01.364Z,110.32
2018-02-09T19:00:29.187Z,101.72
2018-02-09T19:02:56.983Z,108.85
2018-02-09T19:05:24.763Z,118.40
2018-02-09T19:07:52.596Z,102.38
2018-02-09T19:10:20.372Z,100.30
2018-02-09T19:12:48.136Z,116.62
2018-02-09T19:15:15.957Z,120.97
2018-02-09T19:17:44.496Z,143.77
2018-02-09T19:20:12.262Z,163.98
2018-02-09T19:22:40.088Z,166.27
2018-02-09T19:25:07.856Z,167.65
2018-02-09T19:27:35.628Z,151.90
2018-02-09T19:30:03.502Z,157.80
2018-02-09T19:32:31.269Z,151.70
2018-02-09T19:34:59.037Z,163.43
2018-02-09T19:37:26.873Z,160.43
2018-02-09T19:39:54.640Z,140.50
2018-02-09T19:42:22.408Z,171.70
2018-02-09T19:44:50.219Z,144.43
2018-02-09T19:47:18.751Z,162.00
2018-02-09T19:49:46.522Z,137.85
2018-02-09T19:52:14.344Z,135.70
2018-02-09T19:54:42.120Z,158.27
2018-02-09T19:57:09.885Z,139.05
2018-02-09T19:59:37.703Z,134.27
2018-02-09T20:02:06.240Z,130.05
2018-02-09T20:04:34.010Z,124.85
2018-02-09T20:07:01.832Z,132.20
2018-02-09T20:09:29.600Z,139.20
2018-02-09T20:11:57.366Z,124.65
2018-02-09T20:14:25.222Z,147.15
2018-02-09T20:16:52.986Z,146.62
2018-02-09T20:19:20.751Z,143.15
2018-02-09T20:21:49.472Z,144.62
2018-02-09T20:24:17.238Z,154.30
2018-02-09T20:26:45.013Z,140.52
2018-02-09T20:29:13.803Z,133.87
2018-02-09T20:31:41.580Z,134.07
2018-02-09T20:34:10.110Z,155.93
2018-02-09T20:36:37.931Z,143.57
2018-02-09T20:39:06.465Z,148.62
2018-02-09T20:41:34.232Z,154.87
2018-02-09T20:44:02.052Z,151.60
2018-02-09T20:46:29.817Z,148.82
2018-02-09T20:48:57.583Z,157.32
2018-02-09T20:51:25.400Z,158.90
2018-02-09T20:53:53.173Z,143.15
2018-02-09T20:56:21.708Z,148.60
2018-02-09T20:58:49.532Z,163.87
2018-02-09T21:01:17.308Z,153.43
2018-02-09T21:03:45.080Z,147.87
2018-02-09T21:06:12.896Z,164.18
2018-02-09T21:08:40.665Z,145.55
2018-02-09T21:11:09.200Z,155.07
2018-02-09T21:13:37.027Z,177.60
2018-02-09T21:16:04.806Z,174.20
2018-02-09T21:18:32.626Z,178.07
2018-02-09T21:21:01.216Z,177.70
2018-02-09T21:23:29.759Z,175.85
2018-02-09T21:25:57.527Z,150.02
2018-02-09T21:28:25.348Z,141.52
2018-02-09T21:30:53.126Z,142.93
2018-02-09T21:33:20.900Z,155.10
2018-02-09T21:35:48.720Z,163.07
2018-02-09T21:38:17.257Z,162.15
2018-02-09T21:43:48.032Z,123.78
2018-02-09T21:46:16.627Z,130.65
2018-02-09T21:48:45.161Z,141.62
2018-02-09T21:51:12.932Z,142.68
2018-02-09T21:53:40.757Z,113.37
2018-02-09T21:56:08.540Z,124.35
2018-02-09T21:58:36.313Z,123.38
2018-02-09T22:01:04.153Z,131.90
2018-02-09T22:03:31.914Z,135.85
2018-02-09T22:05:59.683Z,133.40
2018-02-09T22:08:27.511Z,142.68
2018-02-09T22:10:55.287Z,133.73
2018-02-09T22:13:23.059Z,131.40
2018-02-09T22:15:50.875Z,132.68
2018-02-09T22:18:18.641Z,126.03
2018-02-09T22:20:47.176Z,149.98
2018-02-09T22:23:15.004Z,147.20
2018-02-09T22:25:42.774Z,123.70
2018-02-09T22:28:10.535Z,124.60
2018-02-09T22:30:38.356Z,123.03
2018-02-09T22:33:06.129Z,132.85
2018-02-09T22:35:33.897Z,116.50
2018-02-09T22:38:02.485Z,148.30
2018-02-09T22:40:31.031Z,115.70
2018-02-09T22:42:58.799Z,132.70
2018-02-09T22:45:26.616Z,134.45
2018-02-09T22:47:54.384Z,130.70
2018-02-09T22:50:22.145Z,124.68
2018-02-09T22:52:49.963Z,126.82
2018-02-09T22:55:17.736Z,133.02
2018-02-09T22:57:46.279Z,132.23
2018-02-09T23:00:14.132Z,128.55
2018-02-09T23:02:41.924Z,115.68
2018-02-09T23:05:09.704Z,126.57
2018-02-09T23:07:38.292Z,123.70
2018-02-09T23:10:06.834Z,113.05
2018-02-09T23:12:34.608Z,133.40
2018-02-09T23:15:02.434Z,122.40
2018-02-09T23:17:30.195Z,141.80
2018-02-09T23:19:57.960Z,137.98
2018-02-09T23:22:25.785Z,133.75
2018-02-09T23:24:54.311Z,141.82
2018-02-09T23:27:22.092Z,134.57
2018-02-09T23:29:49.904Z,141.90
2018-02-09T23:32:17.672Z,141.25
2018-02-09T23:34:45.442Z,144.62
2018-02-09T23:37:13.624Z,150.00
2018-02-09T23:39:41.392Z,144.55
2018-02-09T23:42:09.160Z,153.45
2018-02-09T23:44:36.997Z,126.38
2018-02-09T23:47:04.773Z,160.20
2018-02-09T23:49:32.536Z,146.75
2018-02-09T23:52:00.356Z,146.65
2018-02-09T23:54:28.880Z,156.85
2018-02-09T23:56:56.660Z,165.25
2018-02-09T23:59:24.490Z,152.98
